Arapahoe, Wyoming
Current Conditions -  °F | °C
As of 11:53 PM on Wednesday 22 Oct 2014 (Local Time) from KRIW Reporting Station
Clear Clear  
Wind Chill: 34°   Ceiling: Unl
Heat Index: 41°   Visibility: 10mi
Dew Point: 19°   Wind: 12mph
Humidity: 41%   Direction: 280°W
Pressure: 30.11"   Gusts: NA
Location:  42.96°N, 108.49°W
Report Text: KRIW 230553Z AUTO 28010KT 10SM CLR 05/M07 A3011 RMK AO2 SLP177 T00501072 10128 20044 54000
Loading
Personal Weather Stations






























Interactive Weather Map New forecast layout! Learn more

10-Day Weather Forecast

Advertisements
Track Severe Weather on mobile